Terminal Aerodrome Forecast
Issued by NWS Cleveland, OH

Home | Current Version | Previous Version | Text Only | Print | Product List | Glossary On
Versions: 1 2 3 4 5 6 7 8 9 10 11 12 13 14 15 16 17 18 19 20 21 22 23 24 25
000
FTUS41 KCLE 300158 AAA
TAFMFD
TAF AMD
KMFD 300158Z 3002/3024 02005KT P6SM BKN020
      TEMPO 3002/3004 OVC005
     FM301500 09006KT P6SM OVC050
     FM302100 09008KT 4SM -RA BR OVC015=

USA.gov is the U.S. government's official web portal to all federal, state and local government web resources and services.